Time;durP1;ratioP1;P1;durP2;ratioP2;P2;SDS_P1;SDS_P2;PMS_P1;PMS_P2;Temp;Humidity;BMP_temperature;BMP_pressure;BME280_temperature;BME280_humidity;BME280_pressure;Samples;Min_cycle;Max_cycle;Signal;HPM_P1;HPM_P2
2023/03/13 00:02:14;;;;;;;;;;;;;;;;;;5033682;28;19967;-58
2023/03/13 00:04:40;;;;;;;;;;;;;;;;;;5034618;28;20000;-58
2023/03/13 00:07:06;;;;;;;;;;;;;;;;;;5016316;28;19920;-57
2023/03/13 00:09:32;;;;;;;;;;;;;;;;;;5034083;28;19988;-58
2023/03/13 00:11:57;;;;;;;;;;;;;;;;;;5034093;28;20281;-58
2023/03/13 00:14:23;;;;;;;;;;;;;;;;;;5033700;28;19959;-58
2023/03/13 00:16:49;;;;;;;;;;;;;;;;;;5032727;28;19944;-58
2023/03/13 00:19:15;;;;;;;;;;;;;;;;;;5033900;28;19920;-58
2023/03/13 00:21:41;;;;;;;;;;;;;;;;;;5032513;28;19917;-59
2023/03/13 00:24:07;;;;;;;;;;;;;;;;;;5034304;28;20458;-58
2023/03/13 00:26:33;;;;;;;;;;;;;;;;;;5034660;28;19948;-58
2023/03/13 00:28:59;;;;;;;;;;;;;;;;;;5034235;28;20288;-58
2023/03/13 00:31:25;;;;;;;;;;;;;;;;;;5031643;28;19979;-58
2023/03/13 00:33:51;;;;;;;;;;;;;;;;;;5034246;28;20289;-58
2023/03/13 00:36:16;;;;;;;;;;;;;;;;;;5034305;28;20063;-58
2023/03/13 00:38:42;;;;;;;;;;;;;;;;;;5032358;28;19953;-58
2023/03/13 00:41:10;;;;;;;;;;;;;;;;;;5033023;28;19920;-58
2023/03/13 00:43:36;;;;;;;;;;;;;;;;;;5034486;28;20395;-58
2023/03/13 00:46:02;;;;;;;;;;;;;;;;;;5034304;28;19943;-58
2023/03/13 00:48:28;;;;;;;;;;;;;;;;;;5031907;28;20016;-58
2023/03/13 00:50:54;;;;;;;;;;;;;;;;;;5033362;28;19948;-58
2023/03/13 00:53:20;;;;;;;;;;;;;;;;;;5015317;28;19960;-59
2023/03/13 00:55:46;;;;;;;;;;;;;;;;;;5032951;28;19917;-58
2023/03/13 00:58:12;;;;;;;;;;;;;;;;;;5033024;28;20425;-58
2023/03/13 01:00:38;;;;;;;;;;;;;;;;;;5032296;28;19921;-58
2023/03/13 01:03:03;;;;;;;;;;;;;;;;;;5033377;28;20387;-58
2023/03/13 01:05:29;;;;;;;;;;;;;;;;;;5032710;28;19913;-58
2023/03/13 01:07:55;;;;;;;;;;;;;;;;;;5026966;28;19913;-58
2023/03/13 01:10:21;;;;;;;;;;;;;;;;;;5014945;28;21828;-58
2023/03/13 01:12:47;;;;;;;;;;;;;;;;;;5034276;28;19921;-58
2023/03/13 01:15:13;;;;;;;;;;;;;;;;;;5032775;28;20337;-58
2023/03/13 01:17:39;;;;;;;;;;;;;;;;;;5034122;28;19960;-59
2023/03/13 01:20:06;;;;;;;;;;;;;;;;;;5033743;28;19954;-58
2023/03/13 01:22:32;;;;;;;;;;;;;;;;;;5030749;28;19917;-58
2023/03/13 01:24:58;;;;;;;;;;;;;;;;;;5033622;28;19924;-59
2023/03/13 01:27:24;;;;;;;;;;;;;;;;;;5033635;28;19913;-58
2023/03/13 01:29:50;;;;;;;;;;;;;;;;;;5032807;28;19966;-58
2023/03/13 01:32:16;;;;;;;;;;;;;;;;;;5033737;28;20361;-58
2023/03/13 01:34:42;;;;;;;;;;;;;;;;;;5033753;28;19913;-58
2023/03/13 01:37:07;;;;;;;;;;;;;;;;;;5032468;28;20288;-58
2023/03/13 01:39:33;;;;;;;;;;;;;;;;;;5032995;28;19948;-58
2023/03/13 01:41:59;;;;;;;;;;;;;;;;;;5033336;28;19909;-58
2023/03/13 01:44:25;;;;;;;;;;;;;;;;;;5032728;28;19916;-59
2023/03/13 01:46:51;;;;;;;;;;;;;;;;;;5032080;28;19922;-58
2023/03/13 01:49:17;;;;;;;;;;;;;;;;;;5032536;28;20363;-58
2023/03/13 01:51:43;;;;;;;;;;;;;;;;;;5018544;28;19967;-58
2023/03/13 01:54:09;;;;;;;;;;;;;;;;;;5030969;28;19913;-58
2023/03/13 01:56:35;;;;;;;;;;;;;;;;;;5032050;28;20419;-58
2023/03/13 01:59:01;;;;;;;;;;;;;;;;;;5029994;28;19944;-58
2023/03/13 02:01:26;;;;;;;;;;;;;;;;;;5030686;28;19917;-58
2023/03/13 02:03:52;;;;;;;;;;;;;;;;;;5031110;28;19952;-58
2023/03/13 02:06:18;;;;;;;;;;;;;;;;;;5031434;28;19971;-58
2023/03/13 02:08:44;;;;;;;;;;;;;;;;;;5030490;28;19921;-58
2023/03/13 02:11:10;;;;;;;;;;;;;;;;;;5029625;28;19964;-57
2023/03/13 02:13:36;;;;;;;;;;;;;;;;;;5031954;28;19979;-59
2023/03/13 02:16:02;;;;;;;;;;;;;;;;;;5013681;28;20284;-59
2023/03/13 02:18:28;;;;;;;;;;;;;;;;;;5032108;28;19948;-59
2023/03/13 02:20:54;;;;;;;;;;;;;;;;;;5030888;28;19917;-56
2023/03/13 02:23:20;;;;;;;;;;;;;;;;;;5032420;28;20004;-59
2023/03/13 02:25:45;;;;;;;;;;;;;;;;;;5031551;28;19920;-56
2023/03/13 02:28:11;;;;;;;;;;;;;;;;;;5031254;28;19914;-57
2023/03/13 02:30:37;;;;;;;;;;;;;;;;;;5031369;28;19959;-57
2023/03/13 02:33:03;;;;;;;;;;;;;;;;;;5030690;28;19974;-57
2023/03/13 02:35:29;;;;;;;;;;;;;;;;;;5032533;28;19909;-57
2023/03/13 02:37:55;;;;;;;;;;;;;;;;;;5031211;28;19956;-57
2023/03/13 02:40:21;;;;;;;;;;;;;;;;;;5031453;28;20353;-57
2023/03/13 02:42:47;;;;;;;;;;;;;;;;;;5030661;28;20388;-57
2023/03/13 02:45:13;;;;;;;;;;;;;;;;;;5032646;28;19909;-57
2023/03/13 02:47:38;;;;;;;;;;;;;;;;;;5031831;28;20287;-57
2023/03/13 02:50:04;;;;;;;;;;;;;;;;;;5031156;28;19917;-57
2023/03/13 02:52:30;;;;;;;;;;;;;;;;;;5031015;28;20070;-57
2023/03/13 02:54:56;;;;;;;;;;;;;;;;;;5031773;28;19917;-57
2023/03/13 02:57:22;;;;;;;;;;;;;;;;;;5031126;28;19919;-57
2023/03/13 02:59:48;;;;;;;;;;;;;;;;;;5031148;28;20372;-57
2023/03/13 03:02:14;;;;;;;;;;;;;;;;;;5030495;28;20552;-57
2023/03/13 03:04:40;;;;;;;;;;;;;;;;;;5032236;28;20008;-58
2023/03/13 03:07:06;;;;;;;;;;;;;;;;;;5029593;28;20288;-57
2023/03/13 03:09:32;;;;;;;;;;;;;;;;;;5031584;28;19913;-57
2023/03/13 03:11:58;;;;;;;;;;;;;;;;;;5030697;28;19927;-58
2023/03/13 03:14:24;;;;;;;;;;;;;;;;;;5033770;28;19917;-58
2023/03/13 03:16:49;;;;;;;;;;;;;;;;;;5035647;28;19917;-57
2023/03/13 03:19:15;;;;;;;;;;;;;;;;;;5034318;28;20424;-57
2023/03/13 03:21:41;;;;;;;;;;;;;;;;;;5033611;28;19948;-57
2023/03/13 03:24:07;;;;;;;;;;;;;;;;;;5035192;28;20362;-57
2023/03/13 03:26:33;;;;;;;;;;;;;;;;;;5034145;28;20312;-57
2023/03/13 03:28:59;;;;;;;;;;;;;;;;;;5034309;28;19964;-57
2023/03/13 03:31:25;;;;;;;;;;;;;;;;;;5034733;28;20007;-57
2023/03/13 03:33:51;;;;;;;;;;;;;;;;;;5034963;28;19959;-58
2023/03/13 03:36:17;;;;;;;;;;;;;;;;;;5035355;28;19921;-57
2023/03/13 03:38:43;;;;;;;;;;;;;;;;;;5035316;28;20334;-57
2023/03/13 03:41:08;;;;;;;;;;;;;;;;;;5034430;28;19924;-57
2023/03/13 03:43:34;;;;;;;;;;;;;;;;;;5032309;28;19996;-57
2023/03/13 03:46:00;;;;;;;;;;;;;;;;;;5035624;28;19920;-57
2023/03/13 03:48:26;;;;;;;;;;;;;;;;;;5034663;28;19920;-58
2023/03/13 03:50:52;;;;;;;;;;;;;;;;;;5033764;28;19917;-57
2023/03/13 03:53:18;;;;;;;;;;;;;;;;;;5035523;28;19967;-57
2023/03/13 03:55:44;;;;;;;;;;;;;;;;;;5034951;28;20026;-57
2023/03/13 03:58:10;;;;;;;;;;;;;;;;;;5034361;28;20357;-58
2023/03/13 04:00:36;;;;;;;;;;;;;;;;;;5033353;28;19913;-58
2023/03/13 04:03:01;;;;;;;;;;;;;;;;;;5033661;28;19939;-58
2023/03/13 04:05:27;;;;;;;;;;;;;;;;;;5034945;28;19917;-57
2023/03/13 04:07:53;;;;;;;;;;;;;;;;;;5035506;28;19909;-57
2023/03/13 04:10:19;;;;;;;;;;;;;;;;;;5034418;28;19917;-58
2023/03/13 04:12:45;;;;;;;;;;;;;;;;;;5034552;28;19975;-58
2023/03/13 04:15:11;;;;;;;;;;;;;;;;;;5033694;28;19913;-58
2023/03/13 04:17:37;;;;;;;;;;;;;;;;;;5032041;28;19965;-57
2023/03/13 04:20:03;;;;;;;;;;;;;;;;;;5032623;28;19960;-57
2023/03/13 04:22:29;;;;;;;;;;;;;;;;;;5033040;28;19913;-58
2023/03/13 04:24:55;;;;;;;;;;;;;;;;;;5034437;28;19917;-57
2023/03/13 04:27:21;;;;;;;;;;;;;;;;;;5033515;28;19956;-60
2023/03/13 04:29:47;;;;;;;;;;;;;;;;;;5033866;28;19916;-57
2023/03/13 04:32:13;;;;;;;;;;;;;;;;;;5032876;28;19917;-57
2023/03/13 04:34:39;;;;;;;;;;;;;;;;;;5033336;28;20383;-57
2023/03/13 04:37:05;;;;;;;;;;;;;;;;;;5033275;28;19961;-57
2023/03/13 04:39:31;;;;;;;;;;;;;;;;;;5034772;28;19960;-57
2023/03/13 04:41:56;;;;;;;;;;;;;;;;;;5033133;28;19952;-57
2023/03/13 04:44:22;;;;;;;;;;;;;;;;;;5034230;28;20344;-58
2023/03/13 04:46:48;;;;;;;;;;;;;;;;;;5032179;28;19951;-57
2023/03/13 04:49:14;;;;;;;;;;;;;;;;;;5034379;28;20001;-58
2023/03/13 04:51:40;;;;;;;;;;;;;;;;;;5032551;28;20381;-58
2023/03/13 04:54:06;;;;;;;;;;;;;;;;;;5032622;28;19919;-57
2023/03/13 04:56:32;;;;;;;;;;;;;;;;;;5033321;28;19913;-60
2023/03/13 04:58:58;;;;;;;;;;;;;;;;;;5033538;28;19917;-58
2023/03/13 05:01:24;;;;;;;;;;;;;;;;;;5032629;28;19975;-57
2023/03/13 05:03:50;;;;;;;;;;;;;;;;;;5012586;28;19985;-58
2023/03/13 05:06:15;;;;;;;;;;;;;;;;;;5031942;28;20412;-58
2023/03/13 05:08:41;;;;;;;;;;;;;;;;;;5028703;28;19966;-57
2023/03/13 05:11:07;;;;;;;;;;;;;;;;;;5031477;28;20485;-58
2023/03/13 05:13:33;;;;;;;;;;;;;;;;;;5030540;28;19975;-59
2023/03/13 05:15:59;;;;;;;;;;;;;;;;;;5031444;28;19913;-57
2023/03/13 05:18:25;;;;;;;;;;;;;;;;;;5033034;28;19917;-57
2023/03/13 05:20:51;;;;;;;;;;;;;;;;;;5030655;28;19917;-59
2023/03/13 05:23:17;;;;;;;;;;;;;;;;;;5030618;28;20369;-57
2023/03/13 05:25:42;;;;;;;;;;;;;;;;;;5030919;28;19941;-57
2023/03/13 05:28:08;;;;;;;;;;;;;;;;;;5032064;28;19920;-58
2023/03/13 05:30:34;;;;;;;;;;;;;;;;;;5032380;28;19913;-57
2023/03/13 05:33:00;;;;;;;;;;;;;;;;;;5030295;28;19913;-57
2023/03/13 05:35:26;;;;;;;;;;;;;;;;;;5029405;28;20400;-57
2023/03/13 05:37:52;;;;;;;;;;;;;;;;;;5027545;28;20139;-57
2023/03/13 05:40:18;;;;;;;;;;;;;;;;;;5027274;28;19914;-57
2023/03/13 05:42:44;;;;;;;;;;;;;;;;;;5026553;28;19917;-59
2023/03/13 05:45:10;;;;;;;;;;;;;;;;;;5027388;28;19948;-56
2023/03/13 05:47:37;;;;;;;;;;;;;;;;;;5032135;28;20395;-57
2023/03/13 05:50:03;;;;;;;;;;;;;;;;;;5031277;28;20012;-58
2023/03/13 05:52:29;;;;;;;;;;;;;;;;;;5029704;28;20039;-57
2023/03/13 05:54:55;;;;;;;;;;;;;;;;;;5027973;28;20428;-57
2023/03/13 05:57:21;;;;;;;;;;;;;;;;;;5023947;28;19914;-57
2023/03/13 05:59:46;;;;;;;;;;;;;;;;;;5023397;28;20004;-58
2023/03/13 06:02:12;;;;;;;;;;;;;;;;;;5031970;28;20391;-57
2023/03/13 06:04:38;;;;;;;;;;;;;;;;;;5025706;28;19921;-57
2023/03/13 06:07:04;;;;;;;;;;;;;;;;;;5031003;28;19913;-57
2023/03/13 06:09:30;;;;;;;;;;;;;;;;;;5030475;28;20346;-58
2023/03/13 06:11:56;;;;;;;;;;;;;;;;;;5030345;28;20023;-57
2023/03/13 06:14:24;;;;;;;;;;;;;;;;;;5028086;28;22527;-57
2023/03/13 06:16:49;;;;;;;;;;;;;;;;;;5031380;28;19916;-56
2023/03/13 06:19:15;;;;;;;;;;;;;;;;;;5031011;28;20451;-57
2023/03/13 06:21:41;;;;;;;;;;;;;;;;;;5027766;28;19921;-59
2023/03/13 06:24:07;;;;;;;;;;;;;;;;;;5032017;28;19924;-58
2023/03/13 06:26:33;;;;;;;;;;;;;;;;;;5030463;28;19909;-57
2023/03/13 06:28:59;;;;;;;;;;;;;;;;;;5030978;28;19979;-58
2023/03/13 06:31:25;;;;;;;;;;;;;;;;;;5026717;28;19919;-59
2023/03/13 06:33:51;;;;;;;;;;;;;;;;;;5030876;28;19916;-59
2023/03/13 06:36:16;;;;;;;;;;;;;;;;;;5030088;28;20454;-59
2023/03/13 06:38:42;;;;;;;;;;;;;;;;;;5031573;28;20008;-59
2023/03/13 06:41:08;;;;;;;;;;;;;;;;;;5031193;28;19915;-58
2023/03/13 06:43:34;;;;;;;;;;;;;;;;;;5030353;28;19913;-59
2023/03/13 06:46:00;;;;;;;;;;;;;;;;;;5030724;28;19919;-59
2023/03/13 06:48:26;;;;;;;;;;;;;;;;;;5029547;28;20000;-59
2023/03/13 06:50:54;;;;;;;;;;;;;;;;;;5031262;28;20552;-59
2023/03/13 06:53:20;;;;;;;;;;;;;;;;;;5031166;28;19972;-59
2023/03/13 06:55:47;;;;;;;;;;;;;;;;;;5030818;28;19944;-58
2023/03/13 06:58:13;;;;;;;;;;;;;;;;;;5031617;28;19917;-58
2023/03/13 07:00:41;;;;;;;;;;;;;;;;;;5030941;28;19968;-59
2023/03/13 07:03:07;;;;;;;;;;;;;;;;;;5028658;28;19924;-59
2023/03/13 07:05:33;;;;;;;;;;;;;;;;;;5024177;28;19913;-59
2023/03/13 07:07:59;;;;;;;;;;;;;;;;;;5031477;28;19964;-58
2023/03/13 07:10:24;;;;;;;;;;;;;;;;;;5030070;28;19909;-59
2023/03/13 07:12:50;;;;;;;;;;;;;;;;;;5031098;28;19952;-58
2023/03/13 07:15:16;;;;;;;;;;;;;;;;;;5031098;28;20444;-58
2023/03/13 07:17:42;;;;;;;;;;;;;;;;;;5031042;28;19974;-56
2023/03/13 07:20:09;;;;;;;;;;;;;;;;;;5030924;28;19917;-57
2023/03/13 07:22:35;;;;;;;;;;;;;;;;;;5030821;28;20293;-58
2023/03/13 07:25:01;;;;;;;;;;;;;;;;;;5030047;28;19944;-57
2023/03/13 07:27:27;;;;;;;;;;;;;;;;;;5030163;28;19921;-56
2023/03/13 07:29:53;;;;;;;;;;;;;;;;;;5031020;28;19951;-57
2023/03/13 07:32:19;;;;;;;;;;;;;;;;;;5030073;28;20010;-57
2023/03/13 07:34:45;;;;;;;;;;;;;;;;;;5029694;28;19913;-56
2023/03/13 07:37:11;;;;;;;;;;;;;;;;;;5029502;28;19913;-57
2023/03/13 07:39:36;;;;;;;;;;;;;;;;;;5028304;28;19920;-56
2023/03/13 07:42:02;;;;;;;;;;;;;;;;;;5026600;28;19920;-56
2023/03/13 07:44:28;;;;;;;;;;;;;;;;;;5028481;28;19956;-55
2023/03/13 07:46:54;;;;;;;;;;;;;;;;;;5029945;28;19992;-57
2023/03/13 07:49:20;;;;;;;;;;;;;;;;;;5019663;28;19919;-56
2023/03/13 07:51:47;;;;;;;;;;;;;;;;;;5028551;28;20468;-56
2023/03/13 07:54:13;;;;;;;;;;;;;;;;;;5025578;28;19917;-56
2023/03/13 07:56:38;;;;;;;;;;;;;;;;;;5027390;28;20415;-56
2023/03/13 07:59:04;;;;;;;;;;;;;;;;;;5028656;28;20377;-56
2023/03/13 08:01:30;;;;;;;;;;;;;;;;;;5030894;28;19963;-56
2023/03/13 08:03:57;;;;;;;;;;;;;;;;;;5032915;28;19948;-55
2023/03/13 08:06:23;;;;;;;;;;;;;;;;;;5026386;28;19913;-56
2023/03/13 08:08:49;;;;;;;;;;;;;;;;;;5033303;28;19917;-57
2023/03/13 08:11:15;;;;;;;;;;;;;;;;;;5030440;28;20006;-56
2023/03/13 08:13:41;;;;;;;;;;;;;;;;;;5026859;28;19968;-57
2023/03/13 08:16:06;;;;;;;;;;;;;;;;;;5032716;28;19944;-57
2023/03/13 08:18:33;;;;;;;;;;;;;;;;;;5031102;28;20452;-57
2023/03/13 08:20:59;;;;;;;;;;;;;;;;;;5030327;28;19917;-57
2023/03/13 08:23:25;;;;;;;;;;;;;;;;;;5026105;28;19952;-56
2023/03/13 08:25:51;;;;;;;;;;;;;;;;;;5023111;28;19917;-56
2023/03/13 08:28:17;;;;;;;;;;;;;;;;;;5019335;28;20398;-56
2023/03/13 08:30:43;;;;;;;;;;;;;;;;;;5031779;28;19956;-57
2023/03/13 08:33:09;;;;;;;;;;;;;;;;;;5030966;28;20299;-57
2023/03/13 08:35:35;;;;;;;;;;;;;;;;;;5031897;28;20284;-57
2023/03/13 08:38:01;;;;;;;;;;;;;;;;;;5032228;28;20333;-57
2023/03/13 08:40:27;;;;;;;;;;;;;;;;;;5029602;28;19972;-56
2023/03/13 08:42:53;;;;;;;;;;;;;;;;;;5032869;28;20035;-57
2023/03/13 08:45:19;;;;;;;;;;;;;;;;;;5032078;28;19956;-56
2023/03/13 08:47:45;;;;;;;;;;;;;;;;;;5033841;28;20434;-54
2023/03/13 08:50:11;;;;;;;;;;;;;;;;;;5027496;28;19917;-56
2023/03/13 08:52:37;;;;;;;;;;;;;;;;;;5031582;28;19917;-56
2023/03/13 08:55:03;;;;;;;;;;;;;;;;;;5030756;28;19959;-57
2023/03/13 08:57:29;;;;;;;;;;;;;;;;;;5030201;28;19913;-56
2023/03/13 08:59:54;;;;;;;;;;;;;;;;;;5030660;28;19918;-57
2023/03/13 09:02:20;;;;;;;;;;;;;;;;;;5031975;28;20012;-54
2023/03/13 09:04:47;;;;;;;;;;;;;;;;;;5024287;28;20008;-56
2023/03/13 09:07:13;;;;;;;;;;;;;;;;;;5033070;28;19917;-57
2023/03/13 09:09:39;;;;;;;;;;;;;;;;;;5031021;28;19913;-55
2023/03/13 09:12:05;;;;;;;;;;;;;;;;;;5029178;28;19940;-55
2023/03/13 09:14:30;;;;;;;;;;;;;;;;;;5027595;28;19921;-55
2023/03/13 09:16:58;;;;;;;;;;;;;;;;;;5031974;28;19959;-55
2023/03/13 09:19:24;;;;;;;;;;;;;;;;;;5033058;28;19916;-55
2023/03/13 09:21:50;;;;;;;;;;;;;;;;;;5031464;28;20008;-57
2023/03/13 09:24:16;;;;;;;;;;;;;;;;;;5033005;28;20395;-55
2023/03/13 09:26:42;;;;;;;;;;;;;;;;;;5032818;28;19913;-55
2023/03/13 09:29:08;;;;;;;;;;;;;;;;;;5028120;28;19960;-55
2023/03/13 09:31:33;;;;;;;;;;;;;;;;;;5031970;28;20017;-55
2023/03/13 09:34:00;;;;;;;;;;;;;;;;;;5031515;28;19921;-55
2023/03/13 09:36:25;;;;;;;;;;;;;;;;;;5015291;28;19934;-55
2023/03/13 09:38:51;;;;;;;;;;;;;;;;;;5029748;28;20328;-55
2023/03/13 09:41:17;;;;;;;;;;;;;;;;;;5032266;28;20007;-56
2023/03/13 09:43:43;;;;;;;;;;;;;;;;;;5032408;28;20048;-55
2023/03/13 09:46:09;;;;;;;;;;;;;;;;;;5028729;28;19921;-55
2023/03/13 09:48:35;;;;;;;;;;;;;;;;;;5029039;28;19913;-55
2023/03/13 09:51:01;;;;;;;;;;;;;;;;;;5029909;28;20400;-54
2023/03/13 09:53:27;;;;;;;;;;;;;;;;;;5027144;28;19917;-54
2023/03/13 09:55:53;;;;;;;;;;;;;;;;;;5023394;28;19945;-56
2023/03/13 09:58:19;;;;;;;;;;;;;;;;;;5032043;28;19956;-55
2023/03/13 10:00:45;;;;;;;;;;;;;;;;;;5030368;28;20349;-56
2023/03/13 10:03:11;;;;;;;;;;;;;;;;;;5030713;28;20008;-56
2023/03/13 10:05:37;;;;;;;;;;;;;;;;;;5032582;28;20438;-56
2023/03/13 10:08:03;;;;;;;;;;;;;;;;;;5031270;28;19913;-56
2023/03/13 10:10:29;;;;;;;;;;;;;;;;;;5028466;28;20046;-53
2023/03/13 10:12:55;;;;;;;;;;;;;;;;;;5029106;28;19921;-55
2023/03/13 10:15:21;;;;;;;;;;;;;;;;;;5031100;28;19925;-54
2023/03/13 10:17:47;;;;;;;;;;;;;;;;;;5031615;28;19956;-55
2023/03/13 10:20:12;;;;;;;;;;;;;;;;;;5031489;28;19917;-55
2023/03/13 10:22:38;;;;;;;;;;;;;;;;;;5030870;28;19938;-55
2023/03/13 10:25:04;;;;;;;;;;;;;;;;;;5030530;28;19953;-56
2023/03/13 10:27:30;;;;;;;;;;;;;;;;;;5031446;28;20002;-55
2023/03/13 10:29:56;;;;;;;;;;;;;;;;;;5029973;28;19975;-54
2023/03/13 10:32:22;;;;;;;;;;;;;;;;;;5031501;28;19931;-56
2023/03/13 10:34:48;;;;;;;;;;;;;;;;;;5029994;28;19917;-54
2023/03/13 10:37:14;;;;;;;;;;;;;;;;;;5031576;28;20381;-54
2023/03/13 10:39:40;;;;;;;;;;;;;;;;;;5030945;28;19919;-53
2023/03/13 10:42:05;;;;;;;;;;;;;;;;;;5029347;28;20015;-56
2023/03/13 10:44:31;;;;;;;;;;;;;;;;;;5028309;28;19962;-54
2023/03/13 10:46:57;;;;;;;;;;;;;;;;;;5028680;28;19917;-52
2023/03/13 10:49:23;;;;;;;;;;;;;;;;;;5030664;28;19960;-55
2023/03/13 10:51:49;;;;;;;;;;;;;;;;;;5026809;28;20382;-55
2023/03/13 10:54:15;;;;;;;;;;;;;;;;;;5029102;28;20003;-55
2023/03/13 10:56:41;;;;;;;;;;;;;;;;;;5027849;28;20357;-53
2023/03/13 10:59:07;;;;;;;;;;;;;;;;;;5027378;28;19976;-55
2023/03/13 11:01:33;;;;;;;;;;;;;;;;;;5030881;28;19974;-53
2023/03/13 11:04:01;;;;;;;;;;;;;;;;;;5026550;28;20004;-53
2023/03/13 11:06:27;;;;;;;;;;;;;;;;;;5030396;28;19917;-56
2023/03/13 11:08:53;;;;;;;;;;;;;;;;;;5013325;28;19959;-53
2023/03/13 11:11:19;;;;;;;;;;;;;;;;;;5030817;28;19993;-53
2023/03/13 11:13:45;;;;;;;;;;;;;;;;;;5031137;28;19940;-54
2023/03/13 11:16:11;;;;;;;;;;;;;;;;;;5029344;28;20321;-53
2023/03/13 11:18:37;;;;;;;;;;;;;;;;;;5028479;28;20004;-54
2023/03/13 11:21:03;;;;;;;;;;;;;;;;;;5031080;28;19913;-53
2023/03/13 11:23:29;;;;;;;;;;;;;;;;;;5030757;28;19909;-55
2023/03/13 11:25:54;;;;;;;;;;;;;;;;;;5030932;28;19945;-54
2023/03/13 11:28:20;;;;;;;;;;;;;;;;;;5030741;28;20020;-54
2023/03/13 11:30:46;;;;;;;;;;;;;;;;;;5030518;28;19913;-54
2023/03/13 11:33:16;;;;;;;;;;;;;;;;;;5026893;28;20046;-56
2023/03/13 11:35:41;;;;;;;;;;;;;;;;;;5031914;28;20011;-56
2023/03/13 11:38:07;;;;;;;;;;;;;;;;;;5034008;28;20044;-54
2023/03/13 11:40:33;;;;;;;;;;;;;;;;;;5034703;28;19921;-56
2023/03/13 11:42:59;;;;;;;;;;;;;;;;;;5035306;28;19956;-57
2023/03/13 11:45:25;;;;;;;;;;;;;;;;;;5034593;28;19952;-56
2023/03/13 11:47:51;;;;;;;;;;;;;;;;;;5032181;28;20513;-57
2023/03/13 11:50:17;;;;;;;;;;;;;;;;;;5030743;28;20012;-57
2023/03/13 11:52:43;;;;;;;;;;;;;;;;;;5032628;28;19928;-57
2023/03/13 11:55:09;;;;;;;;;;;;;;;;;;5034413;28;19909;-57
2023/03/13 11:57:36;;;;;;;;;;;;;;;;;;5034557;28;19913;-58
2023/03/13 12:00:04;;;;;;;;;;;;;;;;;;5032348;28;20357;-57
2023/03/13 12:02:30;;;;;;;;;;;;;;;;;;5033943;28;19924;-58
2023/03/13 12:04:56;;;;;;;;;;;;;;;;;;5030979;28;19936;-58
2023/03/13 12:07:22;;;;;;;;;;;;;;;;;;5032740;28;19991;-58
2023/03/13 12:09:48;;;;;;;;;;;;;;;;;;5032667;28;20273;-58
2023/03/13 12:12:14;;;;;;;;;;;;;;;;;;5030629;28;19922;-58
2023/03/13 12:14:40;;;;;;;;;;;;;;;;;;5033787;28;19963;-58
2023/03/13 12:17:06;;;;;;;;;;;;;;;;;;5034377;28;19917;-58
2023/03/13 12:19:32;;;;;;;;;;;;;;;;;;5034305;28;19913;-58
2023/03/13 12:21:58;;;;;;;;;;;;;;;;;;5033877;28;19974;-58
2023/03/13 12:24:23;;;;;;;;;;;;;;;;;;5029021;28;19917;-58
2023/03/13 12:26:49;;;;;;;;;;;;;;;;;;5014712;28;19967;-59
2023/03/13 12:29:15;;;;;;;;;;;;;;;;;;5016007;28;19917;-60
2023/03/13 12:31:41;;;;;;;;;;;;;;;;;;5032032;28;19917;-58
2023/03/13 12:34:07;;;;;;;;;;;;;;;;;;5032818;28;20324;-58
2023/03/13 12:36:33;;;;;;;;;;;;;;;;;;5033011;28;20002;-59
2023/03/13 12:38:59;;;;;;;;;;;;;;;;;;5031389;28;19967;-59
2023/03/13 12:41:25;;;;;;;;;;;;;;;;;;5032576;28;20026;-59
2023/03/13 12:43:51;;;;;;;;;;;;;;;;;;5024128;28;20059;-58
2023/03/13 12:46:16;;;;;;;;;;;;;;;;;;5031809;28;19917;-58
2023/03/13 12:48:42;;;;;;;;;;;;;;;;;;5031478;28;19965;-58
2023/03/13 12:51:08;;;;;;;;;;;;;;;;;;5033370;28;19923;-58
2023/03/13 12:53:34;;;;;;;;;;;;;;;;;;5033423;28;20008;-58
2023/03/13 12:56:00;;;;;;;;;;;;;;;;;;5032968;28;19960;-58
2023/03/13 12:58:26;;;;;;;;;;;;;;;;;;5028742;28;19966;-58
2023/03/13 13:00:52;;;;;;;;;;;;;;;;;;5027394;28;19917;-58
2023/03/13 13:03:18;;;;;;;;;;;;;;;;;;5023488;28;19921;-58
2023/03/13 13:05:44;;;;;;;;;;;;;;;;;;5031879;28;19963;-58
2023/03/13 13:08:10;;;;;;;;;;;;;;;;;;5031818;28;20003;-59
2023/03/13 13:10:40;;;;;;;;;;;;;;;;;;5028623;28;19913;-58
2023/03/13 13:13:06;;;;;;;;;;;;;;;;;;5022446;28;19928;-58
2023/03/13 13:15:31;;;;;;;;;;;;;;;;;;5031083;28;19913;-58
2023/03/13 13:17:57;;;;;;;;;;;;;;;;;;5029661;28;20208;-59
2023/03/13 13:20:23;;;;;;;;;;;;;;;;;;5026669;28;19921;-58
2023/03/13 13:22:49;;;;;;;;;;;;;;;;;;5027291;28;19966;-58
2023/03/13 13:25:15;;;;;;;;;;;;;;;;;;5032627;28;19960;-58
2023/03/13 13:27:41;;;;;;;;;;;;;;;;;;5032088;28;20378;-58
2023/03/13 13:30:07;;;;;;;;;;;;;;;;;;5032835;28;19916;-59
2023/03/13 13:32:33;;;;;;;;;;;;;;;;;;5030009;28;19917;-59
2023/03/13 13:34:59;;;;;;;;;;;;;;;;;;5033193;28;19945;-58
2023/03/13 13:37:26;;;;;;;;;;;;;;;;;;5027662;28;19955;-59
2023/03/13 13:39:52;;;;;;;;;;;;;;;;;;5031512;28;20295;-59
2023/03/13 13:42:18;;;;;;;;;;;;;;;;;;5032129;28;19970;-58
2023/03/13 13:44:44;;;;;;;;;;;;;;;;;;5032177;28;19925;-58
2023/03/13 13:47:09;;;;;;;;;;;;;;;;;;5026169;28;19944;-59
2023/03/13 13:49:36;;;;;;;;;;;;;;;;;;5030860;28;19913;-58
2023/03/13 13:52:02;;;;;;;;;;;;;;;;;;5029676;28;20341;-59
2023/03/13 13:54:28;;;;;;;;;;;;;;;;;;5019273;28;20593;-58
2023/03/13 13:56:54;;;;;;;;;;;;;;;;;;5032091;28;19917;-57
2023/03/13 13:59:20;;;;;;;;;;;;;;;;;;5027944;28;20014;-57
2023/03/13 14:01:46;;;;;;;;;;;;;;;;;;5030656;28;19917;-58
2023/03/13 14:04:12;;;;;;;;;;;;;;;;;;5029307;28;20348;-59
2023/03/13 14:06:38;;;;;;;;;;;;;;;;;;5025019;28;19997;-58
2023/03/13 14:09:04;;;;;;;;;;;;;;;;;;5023196;28;19935;-58
2023/03/13 14:11:30;;;;;;;;;;;;;;;;;;5030149;28;19979;-58
2023/03/13 14:13:56;;;;;;;;;;;;;;;;;;5014901;28;19921;-58
2023/03/13 14:16:22;;;;;;;;;;;;;;;;;;5012560;28;20281;-58
2023/03/13 14:18:48;;;;;;;;;;;;;;;;;;5012730;28;19916;-58
2023/03/13 14:21:13;;;;;;;;;;;;;;;;;;5014365;28;19948;-59
2023/03/13 14:23:42;;;;;;;;;;;;;;;;;;5027809;28;19971;-59
2023/03/13 14:26:08;;;;;;;;;;;;;;;;;;5027758;28;20359;-58
2023/03/13 14:28:34;;;;;;;;;;;;;;;;;;5030709;28;19945;-58
2023/03/13 14:31:00;;;;;;;;;;;;;;;;;;5031635;28;19971;-58
2023/03/13 14:33:26;;;;;;;;;;;;;;;;;;5032037;28;20007;-58
2023/03/13 14:35:52;;;;;;;;;;;;;;;;;;5030442;28;19920;-58
2023/03/13 14:38:18;;;;;;;;;;;;;;;;;;5029062;28;19917;-58
2023/03/13 14:40:44;;;;;;;;;;;;;;;;;;5028623;28;19964;-58
2023/03/13 14:43:10;;;;;;;;;;;;;;;;;;5030017;28;19920;-58
2023/03/13 14:45:36;;;;;;;;;;;;;;;;;;5023226;28;19917;-58
2023/03/13 14:48:02;;;;;;;;;;;;;;;;;;5030515;28;20561;-58
2023/03/13 14:50:28;;;;;;;;;;;;;;;;;;5031246;28;20020;-58
2023/03/13 14:52:54;;;;;;;;;;;;;;;;;;5028914;28;19967;-58
2023/03/13 14:55:20;;;;;;;;;;;;;;;;;;5028825;28;19952;-58
2023/03/13 14:57:46;;;;;;;;;;;;;;;;;;5028677;28;19922;-58
2023/03/13 15:00:12;;;;;;;;;;;;;;;;;;5029554;28;19920;-59
2023/03/13 15:02:40;;;;;;;;;;;;;;;;;;5022743;28;19917;-58
2023/03/13 15:05:08;;;;;;;;;;;;;;;;;;5030173;28;19917;-58
2023/03/13 15:07:35;;;;;;;;;;;;;;;;;;5025351;28;19919;-59
2023/03/13 15:10:01;;;;;;;;;;;;;;;;;;5027088;28;19913;-58
2023/03/13 15:12:27;;;;;;;;;;;;;;;;;;5030685;28;20345;-58
2023/03/13 15:14:53;;;;;;;;;;;;;;;;;;5026691;28;19913;-59
2023/03/13 15:17:19;;;;;;;;;;;;;;;;;;5025391;28;20327;-59
2023/03/13 15:19:45;;;;;;;;;;;;;;;;;;5028722;28;19967;-58
2023/03/13 15:22:11;;;;;;;;;;;;;;;;;;5029857;28;20004;-58
2023/03/13 15:24:36;;;;;;;;;;;;;;;;;;5031310;28;19963;-58
2023/03/13 15:27:02;;;;;;;;;;;;;;;;;;5031122;28;19909;-59
2023/03/13 15:29:28;;;;;;;;;;;;;;;;;;5029036;28;19921;-58
2023/03/13 15:31:54;;;;;;;;;;;;;;;;;;5010827;28;19923;-58
2023/03/13 15:34:24;;;;;;;;;;;;;;;;;;5029293;28;19948;-58
2023/03/13 15:36:50;;;;;;;;;;;;;;;;;;5025988;28;19913;-58
2023/03/13 15:39:18;;;;;;;;;;;;;;;;;;5030655;28;20376;-58
2023/03/13 15:41:44;;;;;;;;;;;;;;;;;;5029139;28;19917;-59
2023/03/13 15:44:09;;;;;;;;;;;;;;;;;;5030720;28;19917;-59
2023/03/13 15:46:35;;;;;;;;;;;;;;;;;;5024624;28;20420;-58
2023/03/13 15:49:02;;;;;;;;;;;;;;;;;;5028970;28;19932;-58
2023/03/13 15:51:28;;;;;;;;;;;;;;;;;;5030011;28;19921;-59
2023/03/13 15:53:54;;;;;;;;;;;;;;;;;;5029836;28;19951;-58
2023/03/13 15:56:21;;;;;;;;;;;;;;;;;;5030773;28;20472;-58
2023/03/13 15:58:47;;;;;;;;;;;;;;;;;;5030741;28;19961;-59
2023/03/13 16:01:13;;;;;;;;;;;;;;;;;;5030469;28;19949;-58
2023/03/13 16:03:39;;;;;;;;;;;;;;;;;;5028226;28;19984;-59
2023/03/13 16:06:05;;;;;;;;;;;;;;;;;;5025184;28;19967;-59
2023/03/13 16:08:31;;;;;;;;;;;;;;;;;;5029456;28;20380;-58
2023/03/13 16:10:57;;;;;;;;;;;;;;;;;;5030283;28;19925;-58
2023/03/13 16:13:22;;;;;;;;;;;;;;;;;;5030580;28;19955;-58
2023/03/13 16:15:49;;;;;;;;;;;;;;;;;;5030721;28;20559;-58
2023/03/13 16:18:15;;;;;;;;;;;;;;;;;;5029531;28;19921;-58
2023/03/13 16:20:41;;;;;;;;;;;;;;;;;;5030188;28;20281;-59
2023/03/13 16:23:07;;;;;;;;;;;;;;;;;;5029330;28;19972;-58
2023/03/13 16:25:32;;;;;;;;;;;;;;;;;;5032282;28;19913;-58
2023/03/13 16:27:58;;;;;;;;;;;;;;;;;;5033664;28;20029;-58
2023/03/13 16:30:24;;;;;;;;;;;;;;;;;;5033895;28;19919;-58
2023/03/13 16:32:50;;;;;;;;;;;;;;;;;;5032266;28;19917;-58
2023/03/13 16:35:16;;;;;;;;;;;;;;;;;;5025535;28;19967;-58
2023/03/13 16:37:42;;;;;;;;;;;;;;;;;;5027162;28;19913;-58